Flight Track Log - Related Links

Times and Time Zones

All times are in EDT time to prevent confusion due to time zone crossing. See the AMF1026 flight status page for this flight to view local times or setup timezone preferences in your user account.

Time Position Orientation Groundspeed Altitude Reporting Facility
EDT Latitude Longitude Course Direction KTS MPH feet Rate Location/Type
Fri 08:54:50 PM 42.7611 -73.8089 354° North 138 159 1,000  Level Boston Center
Fri 08:55:20 PM 42.7839 -73.8122 354° North 170 196 2,000 1,846 Climbing Boston Center
Fri 08:56:21 PM 42.7894 -73.8800 276° West 202 232 3,800 1,632 Climbing Boston Center
Fri 08:57:25 PM 42.7636 -73.9417 240° Southwest 212 244 5,400 1,463 Climbing Boston Center
Fri 08:58:24 PM 42.7375 -74.0147 244° Southwest 212 244 6,800 1,488 Climbing Boston Center
Fri 08:59:26 PM 42.7178 -74.0875 250° West 212 244 8,400 1,339 Climbing Boston Center
Fri 09:00:25 PM 42.6997 -74.1747 254° West 217 250 9,500 1,050 Climbing Boston Center
Fri 09:01:26 PM 42.6842 -74.2478 254° West 228 262 10,500 1,190 Climbing Boston Center
Fri 09:02:26 PM 42.6700 -74.3378 258° West 228 262 11,900 1,240 Climbing Boston Center
Fri 09:03:27 PM 42.6564 -74.4106 256° West 223 257 13,000 1,169 Climbing Boston Center
Fri 09:04:24 PM 42.6422 -74.4978 258° West 223 257 14,200 1,026 Climbing Boston Center
Fri 09:05:24 PM 42.6244 -74.5678 251° West 218 251 15,000 787 Climbing Boston Center
Fri 09:06:26 PM 42.6019 -74.6517 250° West 218 251 15,800 700 Climbing Boston Center
Fri 09:07:24 PM 42.5881 -74.7217 255° West 223 257 16,400 756 Climbing Boston Center
Fri 09:08:25 PM 42.5739 -74.8028 257° West 228 262 17,300 732 Climbing Boston Center
Fri 09:09:27 PM 42.5575 -74.8839 255° West 228 262 17,900 555 Climbing Boston Center
Fri 09:10:24 PM 42.5392 -74.9622 252° West 228 262 18,400 559 Climbing Boston Center
Fri 09:11:25 PM 42.5144 -75.0428 247° West 223 257 19,000 645 Climbing Boston Center
Fri 09:12:25 PM 42.4897 -75.1233 247° West 230 265 19,700 492 Climbing Boston Center
Fri 09:13:27 PM 42.4647 -75.2042 247° West 230 265 20,000 106 Climbing Boston Center
Fri 09:15:15 PM 42.3972 -75.3475 238° Southwest 245 282 20,000  Level New York Center
Fri 09:16:15 PM 42.3628 -75.4264 239° Southwest 250 288 20,000  Level New York Center
Fri 09:17:15 PM 42.3325 -75.5111 244° Southwest 250 288 20,000  Level New York Center
Fri 09:18:15 PM 42.3042 -75.5933 245° Southwest 250 288 20,000  Level New York Center
Fri 09:19:15 PM 42.2758 -75.6781 246° West 250 288 20,000  Level New York Center
Fri 09:20:15 PM 42.2472 -75.7628 246° West 250 288 20,000  Level New York Center
Fri 09:21:15 PM 42.2250 -75.8478 251° West 250 288 20,000  Level New York Center
Fri 09:22:15 PM 42.2025 -75.9356 251° West 250 288 20,000  Level New York Center
Fri 09:23:15 PM 42.1800 -76.0206 250° West 245 282 20,000  Level New York Center
Fri 09:24:15 PM 42.1594 -76.1086 253° West 245 282 20,000  Level New York Center
Fri 09:25:15 PM 42.1306 -76.1928 245° Southwest 245 282 20,000  Level New York Center
Fri 09:26:15 PM 42.0978 -76.2711 241° Southwest 250 288 20,000  Level New York Center
Fri 09:27:15 PM 42.0608 -76.3519 238° Southwest 256 295 20,000  Level New York Center
Fri 09:28:15 PM 42.0239 -76.4297 237° Southwest 256 295 20,000  Level New York Center
Fri 09:29:15 PM 41.9867 -76.5075 237° Southwest 256 295 20,000  Level New York Center
Fri 09:30:15 PM 41.9475 -76.5850 236° Southwest 256 295 20,000  Level New York Center
Fri 09:31:15 PM 41.9125 -76.6656 240° Southwest 256 295 20,000  Level New York Center
Fri 09:32:15 PM 41.8731 -76.7428 236° Southwest 256 295 20,000  Level New York Center
Fri 09:33:15 PM 41.8358 -76.8203 237° Southwest 251 289 20,000  Level New York Center
Fri 09:34:15 PM 41.8008 -76.8978 239° Southwest 251 289 20,000  Level New York Center
Fri 09:35:58 PM 41.7461 -77.0358 242° Southwest 253 291 20,000  Level Cleveland Center
Fri 09:37:00 PM 41.7092 -77.1367 244° Southwest 253 291 20,000  Level Cleveland Center
Fri 09:38:01 PM 41.6808 -77.2225 246° West 252 290 20,000  Level Cleveland Center
Fri 09:39:03 PM 41.6558 -77.3081 249° West 247 284 20,000  Level Cleveland Center
Fri 09:40:04 PM 41.6344 -77.3978 252° West 253 291 20,000  Level Cleveland Center
Fri 09:41:06 PM 41.6158 -77.4817 253° West 249 287 20,000  Level Cleveland Center
Fri 09:42:07 PM 41.5950 -77.5719 253° West 258 297 20,000  Level Cleveland Center
Fri 09:43:09 PM 41.5736 -77.6789 255° West 251 289 20,000  Level Cleveland Center
Fri 09:44:10 PM 41.5583 -77.7681 257° West 249 287 20,000  Level Cleveland Center
Fri 09:45:12 PM 41.5439 -77.8578 258° West 249 287 20,000  Level Cleveland Center
Fri 09:46:13 PM 41.5269 -77.9461 256° West 249 287 20,000  Level Cleveland Center
Fri 09:47:15 PM 41.4969 -78.0306 245° Southwest 255 293 20,000  Level Cleveland Center
Fri 09:48:16 PM 41.4628 -78.1106 240° Southwest 253 291 20,000  Level Cleveland Center
Fri 09:49:17 PM 41.4292 -78.1908 241° Southwest 249 287 20,000  Level Cleveland Center
Fri 09:50:19 PM 41.3883 -78.2881 241° Southwest 250 288 20,000  Level Cleveland Center
Fri 09:51:20 PM 41.3558 -78.3725 243° Southwest 251 289 20,000  Level Cleveland Center
Fri 09:52:22 PM 41.3258 -78.4558 244° Southwest 252 290 20,000  Level Cleveland Center
Fri 09:53:23 PM 41.2961 -78.5406 245° Southwest 264 304 20,000  Level Cleveland Center
Fri 09:54:25 PM 41.2672 -78.6244 245° Southwest 256 295 20,000  Level Cleveland Center
Fri 09:55:26 PM 41.2411 -78.7125 249° West 260 299 20,000  Level Cleveland Center
Fri 09:56:28 PM 41.2150 -78.7983 248° West 258 297 20,000  Level Cleveland Center
Fri 09:57:29 PM 41.1914 -78.8844 250° West 257 296 20,000  Level Cleveland Center
Fri 09:58:31 PM 41.1664 -78.9778 250° West 253 291 20,000  Level Cleveland Center
Fri 09:59:32 PM 41.1431 -79.0619 250° West 250 288 20,000  Level Cleveland Center
Fri 10:00:34 PM 41.1144 -79.1647 250° West 265 305 20,000  Level Cleveland Center
Fri 10:01:35 PM 41.0922 -79.2506 251° West 251 289 20,000  Level Cleveland Center
Fri 10:02:37 PM 41.0700 -79.3392 252° West 252 290 20,000  Level Cleveland Center
Fri 10:03:38 PM 41.0481 -79.4264 252° West 251 289 20,000  Level Cleveland Center
Fri 10:04:40 PM 41.0267 -79.5147 252° West 253 291 20,000  Level Cleveland Center
Fri 10:05:41 PM 41.0069 -79.6056 254° West 258 297 20,000  Level Cleveland Center
Fri 10:06:43 PM 40.9853 -79.6914 252° West 250 288 20,000  Level Cleveland Center
Fri 10:07:45 PM 40.9581 -79.7964 251° West 253 291 20,000  Level Cleveland Center
Fri 10:08:46 PM 40.9339 -79.8842 250° West 256 295 20,000  Level Cleveland Center
Fri 10:09:48 PM 40.9083 -79.9714 249° West 256 295 20,000  Level Cleveland Center
Fri 10:10:50 PM 40.8817 -80.0567 248° West 254 292 20,000  Level Cleveland Center
Fri 10:11:51 PM 40.8536 -80.1444 247° West 256 295 20,000  Level Cleveland Center
Fri 10:12:53 PM 40.8289 -80.2303 249° West 256 295 20,000  Level Cleveland Center
Fri 10:13:55 PM 40.8150 -80.3400 261° West 255 293 20,000  Level Cleveland Center
Fri 10:14:56 PM 40.8086 -80.4272 265° West 254 292 20,000  Level Cleveland Center
Fri 10:15:58 PM 40.8008 -80.5217 264° West 256 295 20,000  Level Cleveland Center
Fri 10:16:59 PM 40.7961 -80.6153 266° West 256 295 20,000  Level Cleveland Center
Fri 10:18:01 PM 40.7942 -80.7061 268° West 253 291 20,000  Level Cleveland Center
Fri 10:19:03 PM 40.7703 -80.7906 250° West 261 300 20,000  Level Cleveland Center
Fri 10:20:04 PM 40.7294 -80.8864 241° Southwest 253 291 20,000  Level Cleveland Center
Fri 10:21:06 PM 40.6886 -80.9617 234° Southwest 255 293 20,000  Level Cleveland Center
Fri 10:22:19 PM 40.6444 -81.0328 231° Southwest 253 291 20,000  Level Cleveland Center
Fri 10:23:21 PM 40.5881 -81.1186 229° Southwest 258 297 20,000  Level Cleveland Center
Fri 10:24:23 PM 40.5419 -81.1864 228° Southwest 252 290 20,000  Level Cleveland Center
Fri 10:25:24 PM 40.4928 -81.2544 226° Southwest 256 295 20,000  Level Cleveland Center
Fri 10:26:26 PM 40.4433 -81.3197 225° Southwest 254 292 20,000  Level Cleveland Center
Fri 10:27:27 PM 40.3822 -81.3964 224° Southwest 254 292 20,000  Level Cleveland Center
Fri 10:28:07 PM 40.3531 -81.4361 226° Southwest 255 293 20,000  Level Indianapolis Center
Fri 10:29:08 PM 40.3006 -81.4992 222° Southwest 253 291 20,000  Level Indianapolis Center
Fri 10:30:09 PM 40.2475 -81.5625 222° Southwest 254 292 20,000  Level Indianapolis Center
Fri 10:31:10 PM 40.1939 -81.6236 221° Southwest 253 291 20,000  Level Indianapolis Center
Fri 10:32:12 PM 40.1383 -81.6806 218° Southwest 252 290 20,000  Level Indianapolis Center
Fri 10:33:13 PM 40.0817 -81.7394 218° Southwest 255 293 20,000  Level Indianapolis Center
Fri 10:34:14 PM 40.0275 -81.8056 223° Southwest 251 289 20,000  Level Indianapolis Center
Fri 10:35:15 PM 39.9775 -81.8711 225° Southwest 254 292 20,000  Level Indianapolis Center
Fri 10:36:16 PM 39.9294 -81.9369 226° Southwest 252 290 20,000  Level Indianapolis Center
Fri 10:37:17 PM 39.8783 -82.0003 224° Southwest 254 292 20,000  Level Indianapolis Center
Fri 10:38:19 PM 39.8294 -82.0647 225° Southwest 252 290 20,000  Level Indianapolis Center
Fri 10:39:20 PM 39.7817 -82.1314 227° Southwest 252 290 20,000  Level Indianapolis Center
Fri 10:40:21 PM 39.7400 -82.2050 234° Southwest 252 290 20,000  Level Indianapolis Center
Fri 10:41:22 PM 39.6967 -82.2953 238° Southwest 248 285 20,000  Level Indianapolis Center
Fri 10:42:23 PM 39.6619 -82.3725 240° Southwest 247 284 20,000  Level Indianapolis Center
Fri 10:43:25 PM 39.6306 -82.4533 243° Southwest 251 289 20,000  Level Indianapolis Center
Fri 10:44:26 PM 39.5997 -82.5322 243° Southwest 247 284 20,000  Level Indianapolis Center
Fri 10:45:27 PM 39.5719 -82.6147 246° West 249 287 20,000  Level Indianapolis Center
Fri 10:46:28 PM 39.5464 -82.6953 248° West 244 281 20,000  Level Indianapolis Center
Fri 10:47:29 PM 39.5208 -82.7781 248° West 246 283 20,000  Level Indianapolis Center
Fri 10:48:30 PM 39.4967 -82.8608 249° West 247 284 20,000  Level Indianapolis Center
Fri 10:49:32 PM 39.4736 -82.9436 250° West 245 282 20,000 -293 Level Indianapolis Center
Fri 10:50:33 PM 39.4506 -83.0303 251° West 251 289 19,400 -639 Descending Indianapolis Center
Fri 10:51:34 PM 39.4247 -83.1222 250° West 267 307 18,700 -787 Descending Indianapolis Center
Fri 10:52:35 PM 39.3933 -83.2378 251° West 282 325 17,800 -787 Descending Indianapolis Center
Fri 10:53:36 PM 39.3681 -83.3325 251° West 279 321 17,100 -934 Descending Indianapolis Center
Fri 10:54:37 PM 39.3453 -83.4328 254° West 287 330 15,900 -976 Descending Indianapolis Center
Fri 10:55:39 PM 39.3256 -83.5311 255° West 285 328 15,100 -878 Descending Indianapolis Center
Fri 10:56:40 PM 39.3044 -83.6294 255° West 284 327 14,100 -934 Descending Indianapolis Center
Fri 10:57:41 PM 39.2847 -83.7289 256° West 285 328 13,200 -787 Descending Indianapolis Center
Fri 10:58:42 PM 39.2661 -83.8283 256° West 285 328 12,500 -836 Descending Indianapolis Center
Fri 10:59:43 PM 39.2469 -83.9275 256° West 284 327 11,500 -885 Descending Indianapolis Center
Fri 11:00:44 PM 39.2231 -84.0242 252° West 283 326 10,700 -683 Descending Indianapolis Center
Fri 11:01:46 PM 39.1703 -84.1008 228° Southwest 285 328 10,100 -878 Descending Indianapolis Center
Fri 11:02:47 PM 39.1083 -84.1617 217° Southwest 281 323 8,900 -984 Descending Indianapolis Center
Fri 11:03:48 PM 39.0506 -84.2247 220° Southwest 275 316 8,100 -836 Descending Indianapolis Center
Fri 11:04:49 PM 38.9975 -84.2853 222° Southwest 262 302 7,200 -1,082 Descending Indianapolis Center
Fri 11:05:50 PM 38.9658 -84.3861 248° West 260 299 5,900 -1,180 Descending Indianapolis Center
Fri 11:06:51 PM 38.9617 -84.4742 267° West 255 293 4,800 -541 Descending Indianapolis Center
Fri 11:07:52 PM 38.9586 -84.5606 267° West 253 291 4,800 -775 Level Indianapolis Center
Fri 11:09:49 PM 38.9667 -84.6500 277° West 117 135 2,500 -1,051 Descending Cincinnati TRACON
Fri 11:10:49 PM 39.0000 -84.6667 339° North 111 128 1,700 -750 Descending Cincinnati TRACON
Fri 11:11:49 PM 39.0333 -84.6667 360° North 104 120 1,000 -700 Descending Cincinnati TRACON

Login

Don't have an account? Register now (free) for customized features, flight alerts, and more!